createdAt,value
2023-03-10T00:00:39.238Z,0.09
2023-03-10T00:01:40.670Z,0.03
2023-03-10T00:02:49.215Z,-0.02
2023-03-10T00:03:51.160Z,0.02
2023-03-10T00:04:53.200Z,0.02
2023-03-10T00:05:54.639Z,0.03
2023-03-10T00:06:56.158Z,0.03
2023-03-10T00:07:57.591Z,-0.03
2023-03-10T00:08:59.447Z,-0.02
2023-03-10T00:10:00.916Z,0.03
2023-03-10T00:11:02.466Z,0.05
2023-03-10T00:12:04.168Z,0.05
2023-03-10T00:13:05.622Z,0.01
2023-03-10T00:14:07.037Z,0.11
2023-03-10T00:15:09.814Z,0.04
2023-03-10T00:16:20.663Z,0.06
2023-03-10T00:17:22.247Z,0.05
2023-03-10T00:18:23.802Z,0.02
2023-03-10T00:19:26.503Z,0.04
2023-03-10T00:20:28.041Z,0.00
2023-03-10T00:21:31.980Z,0.06
2023-03-10T00:22:35.031Z,0.05
2023-03-10T00:23:37.564Z,0.03
2023-03-10T00:24:39.092Z,0.04
2023-03-10T00:25:40.514Z,0.04
2023-03-10T00:26:42.004Z,0.03
2023-03-10T00:27:43.511Z,0.05
2023-03-10T00:28:45.125Z,0.00
2023-03-10T00:29:46.499Z,-0.03
2023-03-10T00:31:05.500Z,0.04
2023-03-10T00:32:07.320Z,-0.01
2023-03-10T00:33:08.705Z,0.06
2023-03-10T00:34:13.041Z,0.09
2023-03-10T00:35:14.531Z,0.07
2023-03-10T00:36:17.410Z,0.14
2023-03-10T00:37:18.907Z,0.11
2023-03-10T00:38:20.301Z,0.12
2023-03-10T00:39:21.950Z,0.16
2023-03-10T00:40:23.438Z,0.14
2023-03-10T00:41:27.567Z,0.10
2023-03-10T00:42:29.012Z,0.17
2023-03-10T00:43:30.838Z,0.11
2023-03-10T00:44:32.251Z,0.06
2023-03-10T00:45:35.456Z,0.10
2023-03-10T00:46:38.675Z,0.10
2023-03-10T00:47:40.188Z,0.13
2023-03-10T00:48:42.905Z,0.18
2023-03-10T00:49:44.342Z,0.12
2023-03-10T00:50:46.179Z,0.18
2023-03-10T00:51:47.924Z,0.16
2023-03-10T00:52:51.138Z,0.10
2023-03-10T00:53:52.587Z,0.08
2023-03-10T00:54:54.178Z,0.13
2023-03-10T00:56:06.291Z,0.11
2023-03-10T00:57:08.483Z,0.11
2023-03-10T00:58:10.000Z,0.08
2023-03-10T00:59:12.417Z,0.09
2023-03-10T01:00:16.800Z,0.07
2023-03-10T01:01:22.837Z,0.08
2023-03-10T01:02:24.253Z,0.09
2023-03-10T01:03:26.819Z,0.17
2023-03-10T01:04:28.379Z,0.19
2023-03-10T01:05:29.984Z,0.11
2023-03-10T01:06:32.203Z,0.08
2023-03-10T01:07:33.617Z,0.06
2023-03-10T01:08:35.084Z,0.08
2023-03-10T01:09:36.839Z,0.11
2023-03-10T01:10:38.320Z,0.08
2023-03-10T01:11:40.135Z,0.10
2023-03-10T01:12:41.756Z,0.10
2023-03-10T01:13:43.965Z,0.10
2023-03-10T01:14:45.395Z,0.11
2023-03-10T01:15:50.807Z,0.10
2023-03-10T01:16:52.331Z,0.06
2023-03-10T01:17:53.761Z,0.03
2023-03-10T01:18:56.111Z,0.09
2023-03-10T01:19:57.527Z,0.07
2023-03-10T01:20:59.143Z,0.02
2023-03-10T01:22:00.558Z,0.01
2023-03-10T01:23:02.266Z,0.05
2023-03-10T01:24:05.080Z,0.05
2023-03-10T01:25:07.034Z,0.02
2023-03-10T01:26:08.686Z,0.08
2023-03-10T01:27:10.129Z,0.02
2023-03-10T01:28:12.377Z,0.03
2023-03-10T01:29:13.866Z,0.04
2023-03-10T01:30:15.542Z,0.07
2023-03-10T01:31:18.354Z,0.03
2023-03-10T01:32:19.882Z,0.00
2023-03-10T01:33:21.353Z,0.04
2023-03-10T01:34:22.757Z,0.00
2023-03-10T01:35:24.199Z,0.01
2023-03-10T01:36:26.842Z,0.02
2023-03-10T01:37:28.250Z,0.11
2023-03-10T01:38:29.693Z,0.08
2023-03-10T01:39:31.098Z,0.10
2023-03-10T01:40:33.096Z,0.10
2023-03-10T01:41:38.307Z,0.14
2023-03-10T01:42:39.729Z,0.13
2023-03-10T01:43:43.063Z,0.14
2023-03-10T01:45:09.270Z,0.16
2023-03-10T01:46:29.121Z,0.20
2023-03-10T01:47:30.607Z,0.23
2023-03-10T01:48:35.489Z,0.21
2023-03-10T01:49:42.465Z,0.20
2023-03-10T01:50:46.232Z,0.13
2023-03-10T01:51:53.661Z,0.14
2023-03-10T01:52:58.395Z,0.08
2023-03-10T01:54:01.777Z,0.15
2023-03-10T01:55:09.667Z,0.20
2023-03-10T01:56:11.309Z,0.16
2023-03-10T01:57:15.020Z,0.14
2023-03-10T01:58:20.742Z,0.19
2023-03-10T01:59:23.630Z,0.21
2023-03-10T02:00:26.741Z,0.18
2023-03-10T02:01:28.402Z,0.23
2023-03-10T02:02:33.345Z,0.25
2023-03-10T02:03:41.282Z,0.24
2023-03-10T02:04:50.221Z,0.25
2023-03-10T02:05:59.635Z,0.30
2023-03-10T02:07:04.343Z,0.36
2023-03-10T02:08:06.870Z,0.29
2023-03-10T02:09:09.152Z,0.27
2023-03-10T02:10:13.461Z,0.21
2023-03-10T02:11:15.578Z,0.17
2023-03-10T02:12:17.925Z,0.18
2023-03-10T02:13:19.379Z,0.21
2023-03-10T02:14:21.115Z,0.22
2023-03-10T02:15:22.664Z,0.22
2023-03-10T02:16:24.270Z,0.22
2023-03-10T02:17:27.769Z,0.19
2023-03-10T02:18:31.535Z,0.17
2023-03-10T02:19:41.782Z,0.15
2023-03-10T02:21:05.028Z,0.18
2023-03-10T02:22:09.855Z,0.15
2023-03-10T02:23:16.066Z,0.23
2023-03-10T02:24:27.307Z,0.27
2023-03-10T02:25:31.743Z,0.28
2023-03-10T02:27:04.075Z,0.27
2023-03-10T02:28:05.857Z,0.26
2023-03-10T02:29:13.693Z,0.24
2023-03-10T02:30:21.276Z,0.39
2023-03-10T02:31:23.403Z,0.28
2023-03-10T02:32:25.679Z,0.31
2023-03-10T02:33:30.673Z,0.29
2023-03-10T02:34:32.227Z,0.30
2023-03-10T02:35:33.772Z,0.28
2023-03-10T02:36:35.238Z,0.27
2023-03-10T02:37:37.064Z,0.25
2023-03-10T02:38:38.502Z,0.22
2023-03-10T02:39:39.887Z,0.24
2023-03-10T02:40:49.144Z,0.27
2023-03-10T02:41:51.168Z,0.24
2023-03-10T02:42:52.679Z,0.27
2023-03-10T02:43:57.529Z,0.26
2023-03-10T02:44:59.084Z,0.30
2023-03-10T02:46:03.467Z,0.28
2023-03-10T02:47:05.090Z,0.30
2023-03-10T02:48:09.060Z,0.31
2023-03-10T02:49:10.886Z,0.27
2023-03-10T02:50:15.987Z,0.34
2023-03-10T02:51:21.504Z,0.30
2023-03-10T02:52:39.050Z,0.33
2023-03-10T02:53:40.427Z,0.31
2023-03-10T02:54:41.868Z,0.41
2023-03-10T02:55:43.821Z,0.41
2023-03-10T02:56:45.476Z,0.38
2023-03-10T02:57:46.939Z,0.38
2023-03-10T02:58:48.412Z,0.33
2023-03-10T02:59:49.873Z,0.33
2023-03-10T03:00:51.720Z,0.32
2023-03-10T03:01:53.178Z,0.32
2023-03-10T03:02:54.828Z,0.35
2023-03-10T03:03:57.388Z,0.39
2023-03-10T03:04:58.789Z,0.33
2023-03-10T03:06:00.420Z,0.32
2023-03-10T03:07:01.884Z,0.35
2023-03-10T03:08:04.920Z,0.32
2023-03-10T03:09:06.795Z,0.31
2023-03-10T03:10:08.899Z,0.33
2023-03-10T03:11:10.412Z,0.34
2023-03-10T03:12:11.884Z,0.37
2023-03-10T03:13:13.729Z,0.38
2023-03-10T03:14:16.169Z,0.36
2023-03-10T03:15:19.444Z,0.38
2023-03-10T03:16:20.950Z,0.44
2023-03-10T03:17:22.370Z,0.43
2023-03-10T03:18:23.767Z,0.46
2023-03-10T03:19:25.242Z,0.41
2023-03-10T03:20:28.025Z,0.48
2023-03-10T03:21:31.553Z,0.42
2023-03-10T03:22:33.047Z,0.38
2023-03-10T03:23:34.818Z,0.35
2023-03-10T03:24:36.292Z,0.35
2023-03-10T03:25:40.246Z,0.45
2023-03-10T03:26:41.633Z,0.40
2023-03-10T03:27:43.691Z,0.40
2023-03-10T03:28:45.830Z,0.43
2023-03-10T03:29:47.153Z,0.43
2023-03-10T03:30:48.637Z,0.38
2023-03-10T03:31:50.176Z,0.41
2023-03-10T03:32:53.195Z,0.38
2023-03-10T03:33:54.627Z,0.34
2023-03-10T03:34:56.023Z,0.39
2023-03-10T03:35:57.448Z,0.41
2023-03-10T03:36:58.909Z,0.40
2023-03-10T03:38:00.988Z,0.44
2023-03-10T03:39:02.417Z,0.39
2023-03-10T03:40:12.745Z,0.41
2023-03-10T03:41:14.145Z,0.37
2023-03-10T03:42:15.567Z,0.38
2023-03-10T03:43:16.934Z,0.40
2023-03-10T03:44:18.490Z,0.51
2023-03-10T03:45:23.597Z,0.56
2023-03-10T03:46:25.063Z,0.47
2023-03-10T03:47:26.534Z,0.43
2023-03-10T03:48:27.966Z,0.38
2023-03-10T03:49:29.379Z,0.33
2023-03-10T03:50:30.848Z,0.34
2023-03-10T03:51:32.536Z,0.35
2023-03-10T03:52:34.351Z,0.34
2023-03-10T03:53:35.782Z,0.34
2023-03-10T03:54:37.203Z,0.38
2023-03-10T03:55:38.615Z,0.37
2023-03-10T03:56:40.187Z,0.44
2023-03-10T03:57:42.780Z,0.47
2023-03-10T03:58:44.308Z,0.49
2023-03-10T03:59:45.897Z,0.48
2023-03-10T04:00:47.356Z,0.44
2023-03-10T04:01:48.758Z,0.40
2023-03-10T04:02:50.343Z,0.44
2023-03-10T04:03:51.888Z,0.44
2023-03-10T04:04:54.401Z,0.41
2023-03-10T04:05:55.835Z,0.40
2023-03-10T04:06:57.370Z,0.44
2023-03-10T04:07:58.979Z,0.41
2023-03-10T04:09:00.561Z,0.50
2023-03-10T04:10:02.007Z,0.43
2023-03-10T04:11:03.637Z,0.41
2023-03-10T04:12:05.706Z,0.42
2023-03-10T04:13:07.424Z,0.40
2023-03-10T04:14:08.868Z,0.47
2023-03-10T04:15:11.279Z,0.48
2023-03-10T04:16:12.980Z,0.51
2023-03-10T04:17:14.440Z,0.48
2023-03-10T04:18:15.885Z,0.44
2023-03-10T04:19:17.373Z,0.48
2023-03-10T04:20:19.006Z,0.47
2023-03-10T04:21:20.487Z,0.55
2023-03-10T04:22:21.905Z,0.51
2023-03-10T04:23:23.417Z,0.46
2023-03-10T04:24:24.869Z,0.47
2023-03-10T04:25:27.724Z,0.49
2023-03-10T04:26:29.253Z,0.50
2023-03-10T04:27:31.094Z,0.46
2023-03-10T04:28:32.517Z,0.49
2023-03-10T04:29:33.935Z,0.51
2023-03-10T04:30:35.355Z,0.56
2023-03-10T04:31:36.813Z,0.55
2023-03-10T04:32:38.628Z,0.55
2023-03-10T04:33:40.128Z,0.59
2023-03-10T04:34:41.630Z,0.57
2023-03-10T04:35:44.330Z,0.55
2023-03-10T04:36:45.799Z,0.56
2023-03-10T04:37:47.544Z,0.60
2023-03-10T04:38:49.134Z,0.59
2023-03-10T04:39:50.569Z,0.44
2023-03-10T04:40:56.598Z,0.56
2023-03-10T04:41:58.041Z,0.53
2023-03-10T04:42:59.687Z,0.59
2023-03-10T04:44:01.167Z,0.57
2023-03-10T04:45:02.703Z,0.68
2023-03-10T04:46:05.336Z,0.63
2023-03-10T04:47:06.870Z,0.63
2023-03-10T04:48:08.711Z,0.62
2023-03-10T04:49:10.124Z,0.57
2023-03-10T04:50:18.425Z,0.59
2023-03-10T04:51:19.887Z,0.57
2023-03-10T04:52:21.372Z,0.51
2023-03-10T04:53:23.100Z,0.57
2023-03-10T04:54:24.554Z,0.60
2023-03-10T04:55:26.011Z,0.58
2023-03-10T04:56:27.733Z,0.56
2023-03-10T04:57:29.211Z,0.55
2023-03-10T04:58:31.089Z,0.58
2023-03-10T04:59:32.570Z,0.58
2023-03-10T05:00:34.140Z,0.65
2023-03-10T05:01:35.678Z,0.68
2023-03-10T05:02:37.565Z,0.68
2023-03-10T05:03:39.057Z,0.68
2023-03-10T05:04:40.637Z,0.65
2023-03-10T05:05:42.739Z,0.71
2023-03-10T05:06:44.061Z,0.71
2023-03-10T05:07:45.561Z,0.69
2023-03-10T05:08:47.565Z,0.67
2023-03-10T05:09:48.964Z,0.66
2023-03-10T05:10:50.442Z,0.72
2023-03-10T05:11:51.821Z,0.73
2023-03-10T05:12:54.534Z,0.71
2023-03-10T05:13:55.980Z,0.71
2023-03-10T05:14:57.377Z,0.72
2023-03-10T05:15:58.918Z,0.74
2023-03-10T05:17:00.451Z,0.71
2023-03-10T05:18:01.884Z,0.81
2023-03-10T05:19:03.440Z,0.80
2023-03-10T05:20:07.169Z,0.80
2023-03-10T05:21:08.668Z,0.81
2023-03-10T05:22:12.318Z,0.84
2023-03-10T05:23:13.816Z,0.86
2023-03-10T05:24:15.242Z,0.83
2023-03-10T05:25:16.743Z,0.80
2023-03-10T05:26:18.211Z,0.83
2023-03-10T05:27:21.791Z,0.80
2023-03-10T05:28:23.830Z,0.86
2023-03-10T05:29:25.309Z,0.84
2023-03-10T05:30:26.716Z,0.81
2023-03-10T05:31:28.284Z,0.84
2023-03-10T05:32:29.723Z,0.84
2023-03-10T05:33:31.621Z,0.89
2023-03-10T05:34:33.110Z,0.85
2023-03-10T05:35:34.600Z,0.89
2023-03-10T05:36:36.058Z,0.88
2023-03-10T05:37:39.415Z,0.92
2023-03-10T05:38:40.866Z,0.89
2023-03-10T05:39:43.770Z,0.91
2023-03-10T05:40:45.223Z,0.90
2023-03-10T05:41:46.627Z,0.87
2023-03-10T05:42:49.183Z,0.88
2023-03-10T05:43:50.656Z,0.91
2023-03-10T05:44:52.090Z,0.90
2023-03-10T05:46:00.373Z,0.90
2023-03-10T05:47:01.910Z,0.91
2023-03-10T05:48:03.510Z,0.89
2023-03-10T05:49:04.913Z,0.92
2023-03-10T05:50:06.878Z,0.89
2023-03-10T05:51:11.043Z,0.88
2023-03-10T05:52:12.505Z,0.90
2023-03-10T05:53:13.929Z,0.94
2023-03-10T05:54:16.590Z,0.91
2023-03-10T05:55:19.750Z,0.98
2023-03-10T05:56:21.608Z,0.94
2023-03-10T05:57:23.227Z,0.93
2023-03-10T05:58:26.051Z,0.95
2023-03-10T05:59:27.554Z,1.00
2023-03-10T06:00:28.980Z,1.07
2023-03-10T06:01:30.688Z,1.06
2023-03-10T06:02:32.131Z,1.13
2023-03-10T06:03:34.695Z,1.11
2023-03-10T06:04:36.525Z,1.15
2023-03-10T06:05:37.997Z,1.14
2023-03-10T06:06:39.454Z,1.12
2023-03-10T06:07:41.247Z,1.11
2023-03-10T06:08:43.134Z,1.17
2023-03-10T06:09:44.640Z,1.13
2023-03-10T06:10:46.089Z,1.15
2023-03-10T06:11:47.581Z,1.09
2023-03-10T06:12:49.024Z,1.08
2023-03-10T06:13:50.557Z,1.14
2023-03-10T06:14:52.197Z,1.23
2023-03-10T06:15:59.385Z,1.21
2023-03-10T06:17:00.918Z,1.18
2023-03-10T06:18:02.541Z,1.17
2023-03-10T06:19:04.258Z,1.15
2023-03-10T06:20:05.915Z,1.18
2023-03-10T06:21:09.714Z,1.16
2023-03-10T06:22:11.151Z,1.23
2023-03-10T06:23:12.572Z,1.29
2023-03-10T06:24:14.285Z,1.25
2023-03-10T06:25:15.913Z,1.27
2023-03-10T06:26:17.747Z,1.26
2023-03-10T06:27:19.500Z,1.25
2023-03-10T06:28:20.931Z,1.26
2023-03-10T06:29:22.436Z,1.27
2023-03-10T06:30:23.987Z,1.25
2023-03-10T06:31:25.893Z,1.30
2023-03-10T06:32:27.392Z,1.40
2023-03-10T06:33:31.700Z,1.33
2023-03-10T06:34:33.114Z,1.39
2023-03-10T06:35:34.539Z,1.35
2023-03-10T06:36:37.348Z,1.34
2023-03-10T06:37:38.896Z,1.37
2023-03-10T06:38:41.434Z,1.41
2023-03-10T06:39:42.894Z,1.52
2023-03-10T06:40:44.544Z,1.58
2023-03-10T06:41:45.960Z,1.49
2023-03-10T06:42:47.401Z,1.47
2023-03-10T06:43:49.365Z,1.45
2023-03-10T06:44:54.517Z,1.45
2023-03-10T06:45:56.131Z,1.40
2023-03-10T06:46:57.861Z,1.41
2023-03-10T06:47:59.280Z,1.46
2023-03-10T06:49:00.703Z,1.52
2023-03-10T06:50:03.727Z,1.47
2023-03-10T06:51:07.508Z,1.49
2023-03-10T06:52:08.941Z,1.48
2023-03-10T06:53:11.469Z,1.49
2023-03-10T06:54:12.980Z,1.47
2023-03-10T06:55:15.872Z,1.52
2023-03-10T06:56:22.303Z,1.48
2023-03-10T06:57:23.732Z,1.47
2023-03-10T06:58:25.294Z,1.49
2023-03-10T06:59:26.763Z,1.51
2023-03-10T07:00:28.269Z,1.53
2023-03-10T07:01:32.388Z,1.62
2023-03-10T07:02:33.810Z,1.58
2023-03-10T07:03:36.408Z,1.64
2023-03-10T07:04:38.057Z,1.66
2023-03-10T07:05:39.599Z,1.73
2023-03-10T07:06:41.135Z,1.69
2023-03-10T07:07:42.741Z,1.69
2023-03-10T07:08:44.211Z,1.71
2023-03-10T07:09:46.254Z,1.75
2023-03-10T07:10:47.767Z,1.74
2023-03-10T07:11:49.207Z,1.75
2023-03-10T07:12:55.017Z,1.85
2023-03-10T07:13:56.774Z,1.82
2023-03-10T07:14:58.519Z,1.80
2023-03-10T07:15:59.939Z,1.77
2023-03-10T07:17:02.974Z,1.88
2023-03-10T07:18:04.485Z,1.88
2023-03-10T07:19:06.365Z,1.87
2023-03-10T07:20:08.637Z,1.86
2023-03-10T07:21:12.068Z,1.88
2023-03-10T07:22:13.584Z,1.88
2023-03-10T07:23:15.615Z,1.92
2023-03-10T07:24:17.951Z,1.93
2023-03-10T07:25:24.035Z,1.95
2023-03-10T07:26:25.524Z,1.97
2023-03-10T07:27:26.960Z,2.05
2023-03-10T07:28:28.881Z,2.11
2023-03-10T07:29:30.329Z,2.04
2023-03-10T07:30:32.628Z,2.06
2023-03-10T07:31:34.800Z,2.02
2023-03-10T07:32:36.249Z,2.07
2023-03-10T07:33:38.786Z,2.08
2023-03-10T07:34:40.229Z,2.01
2023-03-10T07:35:41.683Z,2.18
2023-03-10T07:36:43.191Z,2.21
2023-03-10T07:37:44.675Z,2.21
2023-03-10T07:38:46.754Z,2.23
2023-03-10T07:39:48.118Z,2.24
2023-03-10T07:40:49.518Z,2.20
2023-03-10T07:41:50.981Z,2.23
2023-03-10T07:42:54.560Z,2.28
2023-03-10T07:43:56.796Z,2.28
2023-03-10T07:44:58.228Z,2.34
2023-03-10T07:45:59.663Z,2.42
2023-03-10T07:47:01.185Z,2.52
2023-03-10T07:48:02.693Z,2.58
2023-03-10T07:49:04.917Z,2.68
2023-03-10T07:50:06.740Z,2.75
2023-03-10T07:51:08.383Z,2.85
2023-03-10T07:52:09.776Z,2.85
2023-03-10T07:53:11.201Z,2.83
2023-03-10T07:54:13.156Z,2.85
2023-03-10T07:55:14.611Z,2.94
2023-03-10T07:56:16.335Z,2.95
2023-03-10T07:57:17.804Z,3.07
2023-03-10T07:58:19.732Z,3.15
2023-03-10T07:59:21.197Z,3.13
2023-03-10T08:00:23.006Z,3.26
2023-03-10T08:01:24.668Z,3.23
2023-03-10T08:02:26.103Z,3.35
2023-03-10T08:03:28.953Z,3.40
2023-03-10T08:04:30.772Z,3.55
2023-03-10T08:05:32.446Z,3.73
2023-03-10T08:06:35.618Z,3.87
2023-03-10T08:07:38.145Z,3.90
2023-03-10T08:08:39.661Z,3.90
2023-03-10T08:09:41.473Z,3.94
2023-03-10T08:10:42.961Z,3.93
2023-03-10T08:11:44.360Z,3.97
2023-03-10T08:12:45.829Z,4.00
2023-03-10T08:13:48.326Z,4.08
2023-03-10T08:14:51.085Z,4.12
2023-03-10T08:15:52.596Z,4.10
2023-03-10T08:16:56.524Z,4.08
2023-03-10T08:17:58.017Z,4.18
2023-03-10T08:18:59.423Z,4.26
2023-03-10T08:20:01.109Z,4.22
2023-03-10T08:21:06.570Z,4.29
2023-03-10T08:22:09.523Z,4.25
2023-03-10T08:23:10.963Z,4.31
2023-03-10T08:24:12.437Z,4.33
2023-03-10T08:25:13.836Z,4.40
2023-03-10T08:26:17.637Z,4.45
2023-03-10T08:27:19.358Z,4.42
2023-03-10T08:28:20.856Z,4.51
2023-03-10T08:29:22.940Z,4.50
2023-03-10T08:30:24.268Z,4.62
2023-03-10T08:31:25.812Z,4.67
2023-03-10T08:32:27.292Z,4.63
2023-03-10T08:33:30.556Z,4.73
2023-03-10T08:34:33.586Z,4.71
2023-03-10T08:35:36.361Z,4.62
2023-03-10T08:36:39.161Z,4.70
2023-03-10T08:37:43.063Z,4.62
2023-03-10T08:38:45.184Z,4.68
2023-03-10T08:39:46.660Z,4.77
2023-03-10T08:40:48.078Z,4.89
2023-03-10T08:41:49.780Z,5.00
2023-03-10T08:42:52.030Z,5.07
2023-03-10T08:43:54.818Z,5.17
2023-03-10T08:44:56.963Z,5.26
2023-03-10T08:45:58.400Z,5.25
2023-03-10T08:46:59.923Z,5.28
2023-03-10T08:48:01.382Z,5.47
2023-03-10T08:49:03.105Z,5.59
2023-03-10T08:50:07.113Z,5.64
2023-03-10T08:51:09.198Z,5.63
2023-03-10T08:52:10.638Z,5.62
2023-03-10T08:53:12.585Z,5.51
2023-03-10T08:54:16.749Z,5.49
2023-03-10T08:55:18.197Z,5.50
2023-03-10T08:56:21.147Z,5.46
2023-03-10T08:57:22.544Z,5.53
2023-03-10T08:58:24.496Z,5.54
2023-03-10T08:59:25.912Z,5.64
2023-03-10T09:00:27.454Z,5.84
2023-03-10T09:01:32.190Z,5.94
2023-03-10T09:02:33.852Z,5.87
2023-03-10T09:03:40.149Z,5.95
2023-03-10T09:04:42.989Z,6.03
2023-03-10T09:05:45.084Z,6.12
2023-03-10T09:06:46.437Z,6.22
2023-03-10T09:07:47.863Z,6.47
2023-03-10T09:08:50.611Z,6.71
2023-03-10T09:09:52.021Z,6.85
2023-03-10T09:10:53.470Z,7.01
2023-03-10T09:11:54.926Z,7.09
2023-03-10T09:13:11.268Z,7.08
2023-03-10T09:14:17.061Z,7.29
2023-03-10T09:15:19.784Z,7.32
2023-03-10T09:16:21.554Z,7.37
2023-03-10T09:17:22.984Z,7.36
2023-03-10T09:18:24.587Z,7.44
2023-03-10T09:19:25.989Z,7.52
2023-03-10T09:20:29.464Z,7.63
2023-03-10T09:21:33.688Z,7.73
2023-03-10T09:22:35.371Z,7.80
2023-03-10T09:23:36.884Z,8.00
2023-03-10T09:24:38.291Z,8.13
2023-03-10T09:25:42.871Z,8.17
2023-03-10T09:26:44.968Z,8.35
2023-03-10T09:27:46.923Z,8.48
2023-03-10T09:28:50.897Z,8.46
2023-03-10T09:29:52.441Z,8.57
2023-03-10T09:30:54.915Z,8.56
2023-03-10T09:31:56.374Z,8.54
2023-03-10T09:32:58.251Z,8.60
2023-03-10T09:33:59.959Z,8.62
2023-03-10T09:35:01.464Z,8.67
2023-03-10T09:36:07.396Z,8.74
2023-03-10T09:37:09.380Z,8.81
2023-03-10T09:38:11.112Z,8.86
2023-03-10T09:39:12.520Z,9.04
2023-03-10T09:40:20.099Z,9.13
2023-03-10T09:41:44.579Z,9.38
2023-03-10T09:42:56.362Z,9.47
2023-03-10T09:44:09.658Z,9.50
2023-03-10T09:45:29.923Z,9.62
2023-03-10T09:46:52.993Z,9.66
2023-03-10T09:47:57.379Z,9.68
2023-03-10T09:49:06.946Z,9.70
2023-03-10T09:50:20.264Z,9.59
2023-03-10T09:51:24.134Z,9.60
2023-03-10T09:52:33.477Z,9.53
2023-03-10T09:54:09.063Z,9.45
2023-03-10T09:55:23.073Z,9.45
2023-03-10T09:56:29.714Z,9.43
2023-03-10T09:57:32.425Z,9.42
2023-03-10T09:58:39.340Z,9.40
2023-03-10T09:59:43.581Z,9.49
2023-03-10T10:00:45.574Z,9.46
2023-03-10T10:01:49.053Z,9.46
2023-03-10T10:02:59.580Z,9.49
2023-03-10T10:04:09.617Z,9.43
2023-03-10T10:05:18.206Z,9.36
2023-03-10T10:06:28.318Z,9.39
2023-03-10T10:07:42.234Z,9.39
2023-03-10T10:09:01.865Z,9.39
2023-03-10T10:10:20.093Z,9.52
2023-03-10T10:11:21.635Z,9.68
2023-03-10T10:12:25.694Z,9.77
2023-03-10T10:13:30.476Z,9.93
2023-03-10T10:14:32.249Z,10.05
2023-03-10T10:15:37.982Z,10.08
2023-03-10T10:16:52.799Z,10.09
2023-03-10T10:18:22.687Z,10.19
2023-03-10T10:19:27.813Z,10.18
2023-03-10T10:20:39.289Z,10.16
2023-03-10T10:21:52.808Z,9.93
2023-03-10T10:22:54.639Z,9.93
2023-03-10T10:23:56.165Z,9.81
2023-03-10T10:25:09.496Z,9.81
2023-03-10T10:26:17.289Z,9.88
2023-03-10T10:27:20.682Z,9.89
2023-03-10T10:28:33.919Z,9.72
2023-03-10T10:29:37.865Z,9.72
2023-03-10T10:30:41.483Z,9.76
2023-03-10T10:31:44.950Z,9.92
2023-03-10T10:33:03.149Z,9.89
2023-03-10T10:34:06.037Z,9.94
2023-03-10T10:35:15.442Z,9.93
2023-03-10T10:36:18.305Z,10.00
2023-03-10T10:37:19.756Z,10.04
2023-03-10T10:38:26.932Z,9.94
2023-03-10T10:39:32.832Z,10.04
2023-03-10T10:40:36.413Z,9.88
2023-03-10T10:41:37.824Z,9.87
2023-03-10T10:42:51.352Z,9.98
2023-03-10T10:43:55.256Z,9.76
2023-03-10T10:45:06.614Z,9.74
2023-03-10T10:46:09.281Z,9.79
2023-03-10T10:47:39.237Z,9.78
2023-03-10T10:48:46.605Z,9.82
2023-03-10T10:49:48.021Z,9.81
2023-03-10T10:50:53.947Z,9.85
2023-03-10T10:51:58.610Z,9.88
2023-03-10T10:53:34.265Z,9.89
2023-03-10T10:54:41.974Z,9.83
2023-03-10T10:55:46.429Z,9.61
2023-03-10T10:57:00.383Z,9.54
2023-03-10T10:58:02.927Z,9.40
2023-03-10T10:59:22.418Z,9.23
2023-03-10T11:00:33.295Z,9.24
2023-03-10T11:01:53.242Z,9.35
2023-03-10T11:02:55.194Z,9.33
2023-03-10T11:04:08.156Z,9.30
2023-03-10T11:05:12.665Z,9.27
2023-03-10T11:06:29.045Z,9.34
2023-03-10T11:07:30.512Z,9.32
2023-03-10T11:08:35.025Z,9.39
2023-03-10T11:09:36.527Z,9.37
2023-03-10T11:10:38.745Z,9.47
2023-03-10T11:12:08.374Z,9.27
2023-03-10T11:13:21.814Z,9.19
2023-03-10T11:14:36.844Z,9.17
2023-03-10T11:15:55.833Z,9.11
2023-03-10T11:17:02.358Z,9.10
2023-03-10T11:18:15.567Z,9.03
2023-03-10T11:19:20.462Z,9.00
2023-03-10T11:20:49.515Z,8.91
2023-03-10T11:21:54.793Z,8.93
2023-03-10T11:23:02.642Z,8.76
2023-03-10T11:24:10.332Z,8.58
2023-03-10T11:25:31.416Z,8.69
2023-03-10T11:26:51.174Z,8.69
2023-03-10T11:28:00.979Z,8.73
2023-03-10T11:29:29.706Z,8.65
2023-03-10T11:30:33.984Z,8.60
2023-03-10T11:31:54.440Z,8.56
2023-03-10T11:33:24.449Z,8.55
2023-03-10T11:34:31.154Z,8.65
2023-03-10T11:35:45.782Z,8.74
2023-03-10T11:36:59.025Z,8.62
2023-03-10T11:38:12.548Z,8.61
2023-03-10T11:39:34.194Z,8.47
2023-03-10T11:40:43.697Z,8.44
2023-03-10T11:41:49.635Z,8.49
2023-03-10T11:42:59.922Z,8.48
2023-03-10T11:44:21.683Z,8.59
2023-03-10T11:45:39.327Z,8.52
2023-03-10T11:46:50.359Z,8.65
2023-03-10T11:47:58.898Z,8.61
2023-03-10T11:49:13.220Z,8.51
2023-03-10T11:50:33.011Z,8.44
2023-03-10T11:51:56.045Z,8.38
2023-03-10T11:53:06.450Z,8.11
2023-03-10T11:54:13.333Z,8.19
2023-03-10T11:55:20.499Z,8.20
2023-03-10T11:56:24.345Z,8.20
2023-03-10T11:57:31.621Z,8.07
2023-03-10T11:58:51.933Z,8.07
2023-03-10T11:59:57.648Z,7.84
2023-03-10T12:01:00.579Z,7.83
2023-03-10T12:02:23.578Z,7.98
2023-03-10T12:03:42.384Z,7.79
2023-03-10T12:04:51.006Z,7.57
2023-03-10T12:05:57.444Z,7.24
2023-03-10T12:07:08.815Z,7.21
2023-03-10T12:08:12.553Z,7.34
2023-03-10T12:09:31.364Z,7.21
2023-03-10T12:10:37.179Z,7.29
2023-03-10T12:11:38.807Z,7.34
2023-03-10T12:12:45.814Z,7.44
2023-03-10T12:13:51.090Z,7.61
2023-03-10T12:14:53.773Z,7.54
2023-03-10T12:16:02.494Z,7.73
2023-03-10T12:17:05.303Z,7.53
2023-03-10T12:18:08.177Z,7.57
2023-03-10T12:19:09.667Z,7.67
2023-03-10T12:20:13.970Z,7.83
2023-03-10T12:21:16.969Z,7.87
2023-03-10T12:22:21.065Z,7.95
2023-03-10T12:23:22.408Z,7.88
2023-03-10T12:24:47.634Z,8.02
2023-03-10T12:25:49.395Z,8.20
2023-03-10T12:26:59.047Z,8.65
2023-03-10T12:28:19.082Z,8.96
2023-03-10T12:29:20.342Z,9.05
2023-03-10T12:30:50.950Z,8.94
2023-03-10T12:31:54.632Z,9.07
2023-03-10T12:32:56.302Z,9.12
2023-03-10T12:34:23.667Z,9.10
2023-03-10T12:35:28.190Z,8.78
2023-03-10T12:36:31.660Z,8.83
2023-03-10T12:37:33.521Z,8.68
2023-03-10T12:39:16.861Z,8.36
2023-03-10T12:40:51.287Z,8.31
2023-03-10T12:42:01.646Z,8.23
2023-03-10T12:43:41.427Z,8.21
2023-03-10T12:45:06.767Z,8.21
2023-03-10T12:46:12.520Z,8.11
2023-03-10T12:47:43.034Z,7.93
2023-03-10T12:49:15.298Z,8.03
2023-03-10T12:50:16.711Z,7.99
2023-03-10T12:51:22.383Z,7.96
2023-03-10T12:52:29.932Z,8.09
2023-03-10T12:53:58.094Z,8.31
2023-03-10T12:55:12.705Z,8.39
2023-03-10T12:56:14.142Z,8.62
2023-03-10T12:57:40.939Z,8.72
2023-03-10T12:59:19.237Z,8.46
2023-03-10T13:00:27.604Z,8.71
2023-03-10T13:01:40.581Z,9.04
2023-03-10T13:02:49.783Z,9.46
2023-03-10T13:03:53.958Z,9.91
2023-03-10T13:05:06.222Z,10.11
2023-03-10T13:06:24.482Z,10.01
2023-03-10T13:07:28.660Z,10.25
2023-03-10T13:08:39.383Z,10.18
2023-03-10T13:09:45.473Z,10.26
2023-03-10T13:10:53.387Z,10.36
2023-03-10T13:12:00.110Z,9.92
2023-03-10T13:13:08.738Z,9.42
2023-03-10T13:14:12.429Z,9.59
2023-03-10T13:15:24.689Z,9.71
2023-03-10T13:16:26.573Z,9.82
2023-03-10T13:17:30.820Z,9.76
2023-03-10T13:18:33.609Z,10.05
2023-03-10T13:19:36.657Z,10.14
2023-03-10T13:20:38.802Z,9.99
2023-03-10T13:21:40.675Z,9.86
2023-03-10T13:22:53.566Z,9.78
2023-03-10T13:23:56.096Z,9.56
2023-03-10T13:25:02.755Z,9.17
2023-03-10T13:26:07.906Z,9.01
2023-03-10T13:27:19.426Z,9.09
2023-03-10T13:28:21.449Z,8.94
2023-03-10T13:29:22.814Z,8.84
2023-03-10T13:30:29.460Z,8.79
2023-03-10T13:31:32.829Z,8.81
2023-03-10T13:32:34.445Z,8.69
2023-03-10T13:33:50.121Z,8.73
2023-03-10T13:34:53.547Z,8.28
2023-03-10T13:35:55.038Z,8.22
2023-03-10T13:37:08.147Z,8.32
2023-03-10T13:38:13.542Z,8.53
2023-03-10T13:39:19.011Z,8.75
2023-03-10T13:40:23.368Z,8.71
2023-03-10T13:41:25.277Z,8.67
2023-03-10T13:42:42.765Z,8.66
2023-03-10T13:43:48.463Z,8.78
2023-03-10T13:44:49.972Z,8.53
2023-03-10T13:45:58.696Z,8.58
2023-03-10T13:47:11.515Z,8.43
2023-03-10T13:48:13.531Z,8.25
2023-03-10T13:49:17.565Z,8.23
2023-03-10T13:50:19.165Z,8.30
2023-03-10T13:51:23.054Z,8.21
2023-03-10T13:52:27.446Z,8.26
2023-03-10T13:53:28.915Z,8.20
2023-03-10T13:54:38.318Z,8.32
2023-03-10T13:55:40.993Z,8.14
2023-03-10T13:56:43.924Z,8.02
2023-03-10T13:57:48.236Z,8.06
2023-03-10T13:58:52.268Z,8.02
2023-03-10T13:59:57.075Z,7.97
2023-03-10T14:01:00.880Z,7.93
2023-03-10T14:02:04.209Z,7.99
2023-03-10T14:03:07.943Z,8.02
2023-03-10T14:04:17.372Z,7.95
2023-03-10T14:05:54.127Z,8.11
2023-03-10T14:07:32.790Z,8.06
2023-03-10T14:08:34.230Z,7.97
2023-03-10T14:09:35.862Z,7.84
2023-03-10T14:10:37.294Z,7.83
2023-03-10T14:11:46.048Z,7.91
2023-03-10T14:12:53.427Z,7.94
2023-03-10T14:13:54.959Z,7.84
2023-03-10T14:15:14.407Z,7.92
2023-03-10T14:16:15.902Z,7.77
2023-03-10T14:17:37.590Z,7.82
2023-03-10T14:18:41.718Z,7.67
2023-03-10T14:19:43.129Z,7.65
2023-03-10T14:20:46.699Z,7.68
2023-03-10T14:22:01.018Z,7.67